createdAt,value
2023-02-08T00:00:32.661Z,1034.4
2023-02-08T00:01:36.990Z,1034.4
2023-02-08T00:02:40.615Z,1034.4
2023-02-08T00:03:44.600Z,1034.3
2023-02-08T00:04:47.884Z,1034.3
2023-02-08T00:05:51.171Z,1034.3
2023-02-08T00:06:54.466Z,1034.3
2023-02-08T00:07:58.305Z,1034.3
2023-02-08T00:09:02.065Z,1034.3
2023-02-08T00:10:05.878Z,1034.4
2023-02-08T00:11:09.548Z,1034.4
2023-02-08T00:12:13.123Z,1034.4
2023-02-08T00:13:16.628Z,1034.4
2023-02-08T00:14:19.718Z,1034.3
2023-02-08T00:15:23.072Z,1034.3
2023-02-08T00:16:25.956Z,1034.4
2023-02-08T00:17:28.965Z,1034.4
2023-02-08T00:18:31.737Z,1034.4
2023-02-08T00:19:34.827Z,1034.4
2023-02-08T00:20:39.066Z,1034.4
2023-02-08T00:21:44.007Z,1034.4
2023-02-08T00:22:46.994Z,1034.4
2023-02-08T00:23:50.400Z,1034.4
2023-02-08T00:24:53.194Z,1034.4
2023-02-08T00:25:56.191Z,1034.4
2023-02-08T00:26:59.508Z,1034.4
2023-02-08T00:28:05.211Z,1034.4
2023-02-08T00:29:12.387Z,1034.4
2023-02-08T00:30:15.187Z,1034.4
2023-02-08T00:31:18.525Z,1034.4
2023-02-08T00:32:22.182Z,1034.3
2023-02-08T00:33:25.264Z,1034.3
2023-02-08T00:34:28.172Z,1034.3
2023-02-08T00:35:31.353Z,1034.3
2023-02-08T00:36:34.355Z,1034.3
2023-02-08T00:37:37.748Z,1034.3
2023-02-08T00:38:41.415Z,1034.3
2023-02-08T00:39:45.130Z,1034.3
2023-02-08T00:40:48.781Z,1034.3
2023-02-08T00:41:51.557Z,1034.3
2023-02-08T00:42:54.355Z,1034.3
2023-02-08T00:43:57.133Z,1034.3
2023-02-08T00:45:00.299Z,1034.3
2023-02-08T00:46:03.079Z,1034.3
2023-02-08T00:47:05.804Z,1034.3
2023-02-08T00:48:08.675Z,1034.3
2023-02-08T00:49:12.055Z,1034.3
2023-02-08T00:50:15.038Z,1034.3
2023-02-08T00:51:18.088Z,1034.2
2023-02-08T00:52:21.197Z,1034.2
2023-02-08T00:53:24.253Z,1034.2
2023-02-08T00:54:27.396Z,1034.2
2023-02-08T00:55:30.888Z,1034.2
2023-02-08T00:56:34.230Z,1034.2
2023-02-08T00:57:37.875Z,1034.2
2023-02-08T00:58:41.112Z,1034.2
2023-02-08T00:59:44.092Z,1034.2
2023-02-08T01:00:47.378Z,1034.2
2023-02-08T01:01:50.979Z,1034.2
2023-02-08T01:02:53.636Z,1034.2
2023-02-08T01:03:56.812Z,1034.1
2023-02-08T01:04:59.564Z,1034.1
2023-02-08T01:06:02.641Z,1034.1
2023-02-08T01:07:05.767Z,1034.1
2023-02-08T01:08:08.669Z,1034.2
2023-02-08T01:09:11.766Z,1034.2
2023-02-08T01:10:14.559Z,1034.2
2023-02-08T01:11:18.253Z,1034.2
2023-02-08T01:12:21.173Z,1034.2
2023-02-08T01:13:24.615Z,1034.2
2023-02-08T01:14:27.620Z,1034.2
2023-02-08T01:15:31.130Z,1034.2
2023-02-08T01:16:34.779Z,1034.2
2023-02-08T01:17:38.725Z,1034.2
2023-02-08T01:18:42.759Z,1034.2
2023-02-08T01:19:46.748Z,1034.2
2023-02-08T01:20:49.807Z,1034.2
2023-02-08T01:21:53.209Z,1034.2
2023-02-08T01:22:56.667Z,1034.2
2023-02-08T01:23:59.792Z,1034.2
2023-02-08T01:25:03.230Z,1034.1
2023-02-08T01:26:07.056Z,1034.1
2023-02-08T01:27:10.840Z,1034.1
2023-02-08T01:28:13.676Z,1034.1
2023-02-08T01:29:16.577Z,1034.1
2023-02-08T01:30:19.449Z,1034.1
2023-02-08T01:31:22.882Z,1034.1
2023-02-08T01:32:26.717Z,1034
2023-02-08T01:33:30.419Z,1034.1
2023-02-08T01:34:33.546Z,1034
2023-02-08T01:35:36.102Z,1034
2023-02-08T01:36:39.886Z,1034
2023-02-08T01:37:42.356Z,1034
2023-02-08T01:38:46.046Z,1034
2023-02-08T01:39:49.117Z,1034
2023-02-08T01:40:52.184Z,1033.9
2023-02-08T01:41:55.547Z,1033.9
2023-02-08T01:42:58.970Z,1034
2023-02-08T01:44:02.325Z,1033.9
2023-02-08T01:45:05.358Z,1033.9
2023-02-08T01:46:08.860Z,1033.9
2023-02-08T01:47:12.204Z,1033.9
2023-02-08T01:48:16.276Z,1033.9
2023-02-08T01:49:20.265Z,1033.9
2023-02-08T01:50:23.904Z,1033.9
2023-02-08T01:51:27.057Z,1033.9
2023-02-08T01:52:30.473Z,1033.9
2023-02-08T01:53:32.977Z,1033.9
2023-02-08T01:54:36.055Z,1033.9
2023-02-08T01:55:39.352Z,1033.9
2023-02-08T01:56:41.784Z,1033.9
2023-02-08T01:57:45.147Z,1033.9
2023-02-08T01:58:49.031Z,1033.9
2023-02-08T01:59:52.109Z,1033.9
2023-02-08T02:00:55.196Z,1033.9
2023-02-08T02:01:58.893Z,1033.9
2023-02-08T02:03:01.397Z,1033.9
2023-02-08T02:04:05.352Z,1033.8
2023-02-08T02:05:08.616Z,1033.9
2023-02-08T02:06:11.682Z,1033.9
2023-02-08T02:07:15.127Z,1033.9
2023-02-08T02:08:18.431Z,1033.8
2023-02-08T02:09:21.926Z,1033.9
2023-02-08T02:10:24.734Z,1033.8
2023-02-08T02:11:28.083Z,1033.9
2023-02-08T02:12:31.112Z,1033.9
2023-02-08T02:13:33.836Z,1033.9
2023-02-08T02:14:37.715Z,1033.9
2023-02-08T02:15:41.124Z,1033.9
2023-02-08T02:16:44.681Z,1033.9
2023-02-08T02:17:48.175Z,1033.8
2023-02-08T02:18:50.966Z,1033.9
2023-02-08T02:19:54.418Z,1033.8
2023-02-08T02:20:57.252Z,1033.8
2023-02-08T02:22:00.049Z,1033.8
2023-02-08T02:23:03.796Z,1033.8
2023-02-08T02:24:07.475Z,1033.8
2023-02-08T02:25:10.568Z,1033.8
2023-02-08T02:26:13.916Z,1033.8
2023-02-08T02:27:17.423Z,1033.8
2023-02-08T02:28:20.731Z,1033.8
2023-02-08T02:29:24.793Z,1033.8
2023-02-08T02:30:28.250Z,1033.8
2023-02-08T02:31:31.597Z,1033.8
2023-02-08T02:32:34.870Z,1033.8
2023-02-08T02:33:38.023Z,1033.8
2023-02-08T02:34:41.739Z,1033.8
2023-02-08T02:35:45.788Z,1033.8
2023-02-08T02:36:48.505Z,1033.7
2023-02-08T02:37:52.140Z,1033.7
2023-02-08T02:38:55.702Z,1033.7
2023-02-08T02:39:59.062Z,1033.7
2023-02-08T02:41:02.098Z,1033.7
2023-02-08T02:42:05.564Z,1033.7
2023-02-08T02:43:09.018Z,1033.7
2023-02-08T02:44:12.114Z,1033.7
2023-02-08T02:45:15.176Z,1033.7
2023-02-08T02:46:18.321Z,1033.7
2023-02-08T02:47:21.177Z,1033.7
2023-02-08T02:48:24.280Z,1033.7
2023-02-08T02:49:27.699Z,1033.7
2023-02-08T02:50:30.206Z,1033.7
2023-02-08T02:51:33.896Z,1033.7
2023-02-08T02:52:36.600Z,1033.7
2023-02-08T02:53:39.299Z,1033.8
2023-02-08T02:54:42.307Z,1033.8
2023-02-08T02:55:45.378Z,1033.8
2023-02-08T02:56:49.061Z,1033.8
2023-02-08T02:57:52.139Z,1033.8
2023-02-08T02:58:56.156Z,1033.8
2023-02-08T02:59:59.305Z,1033.8
2023-02-08T03:01:02.940Z,1033.9
2023-02-08T03:02:06.691Z,1033.9
2023-02-08T03:03:09.757Z,1033.8
2023-02-08T03:04:13.547Z,1033.8
2023-02-08T03:05:17.140Z,1033.9
2023-02-08T03:06:20.200Z,1033.8
2023-02-08T03:07:24.274Z,1033.9
2023-02-08T03:08:27.246Z,1033.9
2023-02-08T03:09:30.686Z,1033.9
2023-02-08T03:10:33.765Z,1033.9
2023-02-08T03:11:36.634Z,1033.9
2023-02-08T03:12:39.156Z,1033.9
2023-02-08T03:13:41.952Z,1033.8
2023-02-08T03:14:45.332Z,1033.9
2023-02-08T03:15:48.476Z,1033.9
2023-02-08T03:16:51.441Z,1033.9
2023-02-08T03:17:55.752Z,1033.8
2023-02-08T03:18:58.266Z,1033.8
2023-02-08T03:20:01.260Z,1033.9
2023-02-08T03:21:04.448Z,1033.8
2023-02-08T03:22:07.181Z,1033.9
2023-02-08T03:23:10.586Z,1033.8
2023-02-08T03:24:13.017Z,1033.9
2023-02-08T03:25:16.835Z,1033.8
2023-02-08T03:26:19.663Z,1033.9
2023-02-08T03:27:22.852Z,1033.9
2023-02-08T03:28:26.856Z,1033.9
2023-02-08T03:29:30.567Z,1033.9
2023-02-08T03:30:33.906Z,1033.9
2023-02-08T03:31:38.179Z,1033.9
2023-02-08T03:32:42.116Z,1033.9
2023-02-08T03:33:45.823Z,1033.9
2023-02-08T03:34:48.280Z,1033.9
2023-02-08T03:35:51.364Z,1033.9
2023-02-08T03:36:54.726Z,1033.9
2023-02-08T03:37:57.574Z,1033.9
2023-02-08T03:39:01.250Z,1033.9
2023-02-08T03:40:05.306Z,1033.9
2023-02-08T03:41:08.612Z,1033.9
2023-02-08T03:42:11.791Z,1033.9
2023-02-08T03:43:14.870Z,1033.9
2023-02-08T03:44:18.164Z,1033.9
2023-02-08T03:45:21.621Z,1033.9
2023-02-08T03:46:24.509Z,1034
2023-02-08T03:47:27.575Z,1034
2023-02-08T03:48:30.280Z,1034
2023-02-08T03:49:34.349Z,1034
2023-02-08T03:50:38.386Z,1034
2023-02-08T03:51:42.835Z,1033.9
2023-02-08T03:52:45.882Z,1034
2023-02-08T03:53:48.010Z,1034
2023-02-08T03:54:51.195Z,1033.9
2023-02-08T03:55:54.444Z,1034
2023-02-08T03:56:57.158Z,1034
2023-02-08T03:58:00.150Z,1034
2023-02-08T03:59:03.420Z,1034
2023-02-08T04:00:06.470Z,1034
2023-02-08T04:01:10.021Z,1034
2023-02-08T04:02:13.572Z,1034
2023-02-08T04:03:16.528Z,1034.1
2023-02-08T04:04:20.208Z,1034.1
2023-02-08T04:05:24.040Z,1034.1
2023-02-08T04:06:27.207Z,1034.1
2023-02-08T04:07:30.283Z,1034.1
2023-02-08T04:08:33.969Z,1034.1
2023-02-08T04:09:39.267Z,1034.1
2023-02-08T04:10:43.588Z,1034.1
2023-02-08T04:11:46.333Z,1034.1
2023-02-08T04:12:49.043Z,1034.1
2023-02-08T04:13:52.146Z,1034.1
2023-02-08T04:14:55.188Z,1034.1
2023-02-08T04:15:58.687Z,1034.1
2023-02-08T04:17:02.178Z,1034.1
2023-02-08T04:18:05.663Z,1034.1
2023-02-08T04:19:09.380Z,1034.1
2023-02-08T04:20:13.112Z,1034.1
2023-02-08T04:21:16.618Z,1034.1
2023-02-08T04:22:19.421Z,1034.1
2023-02-08T04:23:22.145Z,1034.1
2023-02-08T04:24:25.256Z,1034.1
2023-02-08T04:25:28.241Z,1034.1
2023-02-08T04:26:31.632Z,1034.1
2023-02-08T04:27:34.147Z,1034.1
2023-02-08T04:28:37.801Z,1034
2023-02-08T04:29:40.656Z,1034
2023-02-08T04:30:44.760Z,1034
2023-02-08T04:31:47.972Z,1034
2023-02-08T04:32:51.124Z,1034
2023-02-08T04:33:54.501Z,1034
2023-02-08T04:34:56.921Z,1034
2023-02-08T04:36:00.098Z,1034
2023-02-08T04:37:03.925Z,1034
2023-02-08T04:38:07.545Z,1034
2023-02-08T04:39:10.811Z,1034
2023-02-08T04:40:14.614Z,1034
2023-02-08T04:41:17.940Z,1034
2023-02-08T04:42:21.378Z,1034
2023-02-08T04:43:24.686Z,1034
2023-02-08T04:44:27.673Z,1034
2023-02-08T04:45:30.390Z,1034
2023-02-08T04:46:33.392Z,1034
2023-02-08T04:47:36.890Z,1034
2023-02-08T04:48:40.197Z,1034
2023-02-08T04:49:42.936Z,1034
2023-02-08T04:50:45.753Z,1034
2023-02-08T04:51:48.056Z,1034
2023-02-08T04:52:51.828Z,1034
2023-02-08T04:53:54.553Z,1034
2023-02-08T04:54:57.430Z,1034
2023-02-08T04:56:01.109Z,1034.1
2023-02-08T04:57:04.471Z,1034
2023-02-08T04:58:08.206Z,1034
2023-02-08T04:59:11.023Z,1034
2023-02-08T05:00:15.046Z,1034
2023-02-08T05:01:18.467Z,1034
2023-02-08T05:02:21.713Z,1033.9
2023-02-08T05:03:25.077Z,1033.8
2023-02-08T05:04:27.843Z,1033.8
2023-02-08T05:05:31.262Z,1033.8
2023-02-08T05:06:33.982Z,1033.8
2023-02-08T05:07:38.452Z,1033.8
2023-02-08T05:08:42.148Z,1033.9
2023-02-08T05:09:45.476Z,1033.9
2023-02-08T05:10:48.640Z,1033.8
2023-02-08T05:11:51.726Z,1033.8
2023-02-08T05:12:55.161Z,1033.8
2023-02-08T05:13:58.918Z,1033.9
2023-02-08T05:15:02.148Z,1033.8
2023-02-08T05:16:06.094Z,1033.9
2023-02-08T05:17:10.078Z,1033.9
2023-02-08T05:18:13.383Z,1033.9
2023-02-08T05:19:16.251Z,1034
2023-02-08T05:20:19.520Z,1033.9
2023-02-08T05:21:23.159Z,1034
2023-02-08T05:22:26.535Z,1033.9
2023-02-08T05:23:29.616Z,1033.9
2023-02-08T05:24:33.022Z,1033.9
2023-02-08T05:25:35.896Z,1033.9
2023-02-08T05:26:38.437Z,1033.9
2023-02-08T05:27:41.153Z,1033.9
2023-02-08T05:28:44.268Z,1033.9
2023-02-08T05:29:47.559Z,1033.9
2023-02-08T05:30:50.772Z,1033.9
2023-02-08T05:31:53.486Z,1033.8
2023-02-08T05:32:57.044Z,1033.8
2023-02-08T05:34:00.747Z,1033.8
2023-02-08T05:35:03.845Z,1033.9
2023-02-08T05:36:06.933Z,1033.9
2023-02-08T05:37:10.026Z,1033.9
2023-02-08T05:38:12.172Z,1033.9
2023-02-08T05:39:16.176Z,1033.9
2023-02-08T05:40:19.652Z,1033.9
2023-02-08T05:41:21.890Z,1033.9
2023-02-08T05:42:24.462Z,1033.8
2023-02-08T05:43:27.841Z,1033.8
2023-02-08T05:44:31.245Z,1033.9
2023-02-08T05:45:34.989Z,1033.9
2023-02-08T05:46:39.139Z,1033.9
2023-02-08T05:47:43.048Z,1033.9
2023-02-08T05:48:45.817Z,1033.9
2023-02-08T05:49:49.274Z,1033.9
2023-02-08T05:50:52.713Z,1033.9
2023-02-08T05:51:56.078Z,1033.9
2023-02-08T05:52:59.892Z,1034
2023-02-08T05:54:03.000Z,1034.1
2023-02-08T05:55:05.570Z,1034
2023-02-08T05:56:09.278Z,1034.1
2023-02-08T05:57:11.826Z,1034.1
2023-02-08T05:58:15.252Z,1034.1
2023-02-08T05:59:19.246Z,1034.1
2023-02-08T06:00:21.983Z,1034
2023-02-08T06:01:25.452Z,1034.1
2023-02-08T06:02:28.406Z,1034.1
2023-02-08T06:03:32.099Z,1034.1
2023-02-08T06:04:39.225Z,1034.1
2023-02-08T06:05:42.335Z,1034.1
2023-02-08T06:06:45.404Z,1034.2
2023-02-08T06:07:48.231Z,1034.2
2023-02-08T06:08:51.703Z,1034.2
2023-02-08T06:09:54.685Z,1034.2
2023-02-08T06:10:58.128Z,1034.2
2023-02-08T06:12:01.844Z,1034.2
2023-02-08T06:13:04.302Z,1034.2
2023-02-08T06:14:07.448Z,1034.2
2023-02-08T06:15:10.852Z,1034.3
2023-02-08T06:16:13.832Z,1034.3
2023-02-08T06:17:21.023Z,1034.2
2023-02-08T06:18:23.747Z,1034.3
2023-02-08T06:19:26.750Z,1034.2
2023-02-08T06:20:29.831Z,1034.3
2023-02-08T06:21:33.027Z,1034.2
2023-02-08T06:22:36.180Z,1034.3
2023-02-08T06:23:39.656Z,1034.3
2023-02-08T06:24:42.759Z,1034.3
2023-02-08T06:25:45.539Z,1034.3
2023-02-08T06:26:48.550Z,1034.3
2023-02-08T06:27:51.744Z,1034.3
2023-02-08T06:28:57.478Z,1034.3
2023-02-08T06:30:00.679Z,1034.3
2023-02-08T06:31:03.403Z,1034.3
2023-02-08T06:32:07.019Z,1034.3
2023-02-08T06:33:11.071Z,1034.3
2023-02-08T06:34:18.128Z,1034.3
2023-02-08T06:35:20.935Z,1034.3
2023-02-08T06:36:24.215Z,1034.4
2023-02-08T06:37:27.120Z,1034.3
2023-02-08T06:38:30.598Z,1034.4
2023-02-08T06:39:34.237Z,1034.3
2023-02-08T06:40:37.242Z,1034.3
2023-02-08T06:41:41.847Z,1034.3
2023-02-08T06:42:44.573Z,1034.4
2023-02-08T06:43:48.682Z,1034.3
2023-02-08T06:44:55.946Z,1034.4
2023-02-08T06:45:58.872Z,1034.4
2023-02-08T06:47:02.601Z,1034.4
2023-02-08T06:48:05.622Z,1034.4
2023-02-08T06:49:08.752Z,1034.4
2023-02-08T06:50:11.137Z,1034.4
2023-02-08T06:51:13.865Z,1034.5
2023-02-08T06:52:17.527Z,1034.4
2023-02-08T06:53:20.361Z,1034.4
2023-02-08T06:54:23.466Z,1034.4
2023-02-08T06:55:26.861Z,1034.4
2023-02-08T06:56:30.600Z,1034.4
2023-02-08T06:57:34.074Z,1034.4
2023-02-08T06:58:36.515Z,1034.4
2023-02-08T06:59:40.322Z,1034.4
2023-02-08T07:00:43.831Z,1034.4
2023-02-08T07:01:46.821Z,1034.4
2023-02-08T07:02:49.916Z,1034.3
2023-02-08T07:03:53.246Z,1034.4
2023-02-08T07:04:56.715Z,1034.3
2023-02-08T07:06:05.988Z,1034.3
2023-02-08T07:07:08.830Z,1034.3
2023-02-08T07:08:11.570Z,1034.3
2023-02-08T07:09:14.555Z,1034.3
2023-02-08T07:10:17.344Z,1034.3
2023-02-08T07:11:20.759Z,1034.3
2023-02-08T07:12:23.924Z,1034.3
2023-02-08T07:13:27.034Z,1034.3
2023-02-08T07:14:30.346Z,1034.3
2023-02-08T07:15:33.569Z,1034.3
2023-02-08T07:16:37.489Z,1034.3
2023-02-08T07:17:40.310Z,1034.3
2023-02-08T07:18:43.692Z,1034.3
2023-02-08T07:19:46.245Z,1034.2
2023-02-08T07:20:49.748Z,1034.2
2023-02-08T07:21:52.459Z,1034.2
2023-02-08T07:22:55.532Z,1034.2
2023-02-08T07:23:59.267Z,1034.2
2023-02-08T07:25:01.854Z,1034.2
2023-02-08T07:26:04.936Z,1034.1
2023-02-08T07:27:08.398Z,1034.2
2023-02-08T07:28:11.294Z,1034.1
2023-02-08T07:29:15.274Z,1034.1
2023-02-08T07:30:18.269Z,1034.1
2023-02-08T07:31:21.751Z,1034.1
2023-02-08T07:32:25.077Z,1034.1
2023-02-08T07:33:28.066Z,1034
2023-02-08T07:34:30.849Z,1034
2023-02-08T07:35:33.953Z,1034.1
2023-02-08T07:36:37.145Z,1034
2023-02-08T07:37:39.671Z,1034
2023-02-08T07:38:42.749Z,1034
2023-02-08T07:39:46.536Z,1034.1
2023-02-08T07:40:50.013Z,1034
2023-02-08T07:41:53.512Z,1034
2023-02-08T07:42:56.973Z,1034
2023-02-08T07:44:00.334Z,1034
2023-02-08T07:45:03.391Z,1034
2023-02-08T07:46:06.751Z,1034
2023-02-08T07:47:10.679Z,1033.9
2023-02-08T07:48:14.133Z,1034
2023-02-08T07:49:17.222Z,1033.9
2023-02-08T07:50:20.883Z,1033.9
2023-02-08T07:51:24.330Z,1034
2023-02-08T07:52:27.768Z,1033.9
2023-02-08T07:53:30.927Z,1033.9
2023-02-08T07:54:33.361Z,1033.9
2023-02-08T07:55:36.156Z,1033.9
2023-02-08T07:56:39.236Z,1033.9
2023-02-08T07:57:42.224Z,1033.9
2023-02-08T07:58:45.607Z,1033.9
2023-02-08T07:59:48.686Z,1033.8
2023-02-08T08:00:56.040Z,1033.9
2023-02-08T08:01:59.814Z,1033.9
2023-02-08T08:03:03.884Z,1033.8
2023-02-08T08:04:06.775Z,1033.9
2023-02-08T08:05:10.260Z,1033.9
2023-02-08T08:06:14.276Z,1033.9
2023-02-08T08:07:17.966Z,1033.9
2023-02-08T08:08:21.724Z,1033.8
2023-02-08T08:09:25.410Z,1033.8
2023-02-08T08:10:28.168Z,1033.8
2023-02-08T08:11:31.634Z,1033.9
2023-02-08T08:12:35.360Z,1033.7
2023-02-08T08:13:38.808Z,1033.7
2023-02-08T08:14:42.469Z,1033.7
2023-02-08T08:15:46.156Z,1033.7
2023-02-08T08:16:48.677Z,1033.7
2023-02-08T08:17:52.418Z,1033.7
2023-02-08T08:18:56.559Z,1033.7
2023-02-08T08:20:00.187Z,1033.7
2023-02-08T08:21:02.725Z,1033.7
2023-02-08T08:22:06.366Z,1033.7
2023-02-08T08:23:09.366Z,1033.7
2023-02-08T08:24:13.450Z,1033.7
2023-02-08T08:25:15.886Z,1033.7
2023-02-08T08:26:19.623Z,1033.7
2023-02-08T08:27:22.644Z,1033.7
2023-02-08T08:28:25.875Z,1033.8
2023-02-08T08:29:30.068Z,1033.7
2023-02-08T08:30:33.097Z,1033.7
2023-02-08T08:31:37.093Z,1033.8
2023-02-08T08:32:40.811Z,1033.7
2023-02-08T08:33:43.861Z,1033.7
2023-02-08T08:34:47.740Z,1033.7
2023-02-08T08:35:50.504Z,1033.7
2023-02-08T08:36:53.475Z,1033.7
2023-02-08T08:37:56.720Z,1033.7
2023-02-08T08:38:59.858Z,1033.7
2023-02-08T08:40:03.959Z,1033.7
2023-02-08T08:41:07.360Z,1033.7
2023-02-08T08:42:11.011Z,1033.7
2023-02-08T08:43:13.894Z,1033.7
2023-02-08T08:44:17.217Z,1033.7
2023-02-08T08:45:20.974Z,1033.7
2023-02-08T08:46:24.168Z,1033.7
2023-02-08T08:47:29.473Z,1033.6
2023-02-08T08:48:33.179Z,1033.7
2023-02-08T08:49:36.834Z,1033.7
2023-02-08T08:50:41.288Z,1033.7
2023-02-08T08:51:45.121Z,1033.7
2023-02-08T08:52:48.116Z,1033.7
2023-02-08T08:53:51.291Z,1033.7
2023-02-08T08:54:54.969Z,1033.7
2023-02-08T08:55:58.786Z,1033.7
2023-02-08T08:57:02.807Z,1033.7
2023-02-08T08:58:06.481Z,1033.7
2023-02-08T08:59:10.196Z,1033.7
2023-02-08T09:00:13.286Z,1033.7
2023-02-08T09:01:16.466Z,1033.7
2023-02-08T09:02:20.004Z,1033.7
2023-02-08T09:03:23.542Z,1033.7
2023-02-08T09:04:26.914Z,1033.7
2023-02-08T09:05:29.988Z,1033.7
2023-02-08T09:06:33.958Z,1033.7
2023-02-08T09:07:37.303Z,1033.7
2023-02-08T09:08:40.659Z,1033.7
2023-02-08T09:09:43.841Z,1033.7
2023-02-08T09:10:46.713Z,1033.8
2023-02-08T09:11:50.490Z,1033.7
2023-02-08T09:12:53.967Z,1033.7
2023-02-08T09:13:57.492Z,1033.7
2023-02-08T09:15:01.125Z,1033.7
2023-02-08T09:16:05.772Z,1033.7
2023-02-08T09:17:10.025Z,1033.7
2023-02-08T09:18:13.069Z,1033.6
2023-02-08T09:19:16.335Z,1033.6
2023-02-08T09:20:19.627Z,1033.7
2023-02-08T09:21:23.006Z,1033.7
2023-02-08T09:22:27.254Z,1033.7
2023-02-08T09:23:30.136Z,1033.7
2023-02-08T09:24:33.596Z,1033.7
2023-02-08T09:25:36.682Z,1033.7
2023-02-08T09:26:40.102Z,1033.6
2023-02-08T09:27:43.575Z,1033.6
2023-02-08T09:28:47.369Z,1033.6
2023-02-08T09:29:51.050Z,1033.6
2023-02-08T09:30:53.927Z,1033.6
2023-02-08T09:31:57.848Z,1033.6
2023-02-08T09:33:01.332Z,1033.6
2023-02-08T09:34:05.085Z,1033.6
2023-02-08T09:35:08.379Z,1033.6
2023-02-08T09:36:11.152Z,1033.6
2023-02-08T09:37:14.876Z,1033.5
2023-02-08T09:38:18.502Z,1033.6
2023-02-08T09:39:21.500Z,1033.5
2023-02-08T09:40:25.209Z,1033.5
2023-02-08T09:41:27.964Z,1033.5
2023-02-08T09:42:30.816Z,1033.5
2023-02-08T09:43:34.060Z,1033.6
2023-02-08T09:44:37.869Z,1033.5
2023-02-08T09:46:00.086Z,1033.6
2023-02-08T09:47:03.700Z,1033.5
2023-02-08T09:48:06.579Z,1033.5
2023-02-08T09:49:09.597Z,1033.5
2023-02-08T09:50:12.411Z,1033.4
2023-02-08T09:51:16.413Z,1033.4
2023-02-08T09:52:19.498Z,1033.6
2023-02-08T09:53:22.931Z,1033.4
2023-02-08T09:54:26.804Z,1033.4
2023-02-08T09:55:29.946Z,1033.4
2023-02-08T09:56:32.916Z,1033.4
2023-02-08T09:57:36.389Z,1033.5
2023-02-08T09:58:39.858Z,1033.4
2023-02-08T09:59:42.955Z,1033.4
2023-02-08T10:00:46.656Z,1033.4
2023-02-08T10:01:49.963Z,1033.5
2023-02-08T10:02:53.019Z,1033.4
2023-02-08T10:03:56.214Z,1033.3
2023-02-08T10:04:59.887Z,1033.4
2023-02-08T10:06:03.726Z,1033.4
2023-02-08T10:07:07.172Z,1033.4
2023-02-08T10:08:10.648Z,1033.4
2023-02-08T10:09:14.869Z,1033.4
2023-02-08T10:10:19.047Z,1033.5
2023-02-08T10:11:21.683Z,1033.4
2023-02-08T10:12:24.798Z,1033.4
2023-02-08T10:13:41.911Z,1033.4
2023-02-08T10:14:45.740Z,1033.3
2023-02-08T10:15:49.205Z,1033.5
2023-02-08T10:16:52.638Z,1033.4
2023-02-08T10:17:58.545Z,1033.4
2023-02-08T10:19:02.241Z,1033.4
2023-02-08T10:20:05.695Z,1033.4
2023-02-08T10:21:09.730Z,1033.4
2023-02-08T10:22:13.061Z,1033.5
2023-02-08T10:23:22.379Z,1033.5
2023-02-08T10:24:26.506Z,1033.5
2023-02-08T10:25:29.535Z,1033.5
2023-02-08T10:26:33.586Z,1033.5
2023-02-08T10:27:36.732Z,1033.4
2023-02-08T10:28:39.910Z,1033.4
2023-02-08T10:29:43.155Z,1033.5
2023-02-08T10:30:47.751Z,1033.4
2023-02-08T10:31:52.333Z,1033.4
2023-02-08T10:32:56.469Z,1033.3
2023-02-08T10:34:00.113Z,1033.3
2023-02-08T10:35:03.493Z,1033.4
2023-02-08T10:36:07.247Z,1033.3
2023-02-08T10:37:10.354Z,1033.3
2023-02-08T10:38:14.075Z,1033.3
2023-02-08T10:39:17.243Z,1033.3
2023-02-08T10:40:20.911Z,1033.2
2023-02-08T10:41:24.316Z,1033.3
2023-02-08T10:42:28.867Z,1033.3
2023-02-08T10:43:32.194Z,1033.3
2023-02-08T10:44:35.004Z,1033.4
2023-02-08T10:45:38.471Z,1033.3
2023-02-08T10:46:42.126Z,1033.3
2023-02-08T10:47:45.468Z,1033.3
2023-02-08T10:48:49.204Z,1033.3
2023-02-08T10:49:53.298Z,1033.2
2023-02-08T10:50:56.982Z,1033.2
2023-02-08T10:52:00.358Z,1033.2
2023-02-08T10:53:03.548Z,1033.3
2023-02-08T10:54:07.052Z,1033.2
2023-02-08T10:55:10.541Z,1033.3
2023-02-08T10:56:15.010Z,1033.2
2023-02-08T10:57:18.797Z,1033.3
2023-02-08T10:58:21.825Z,1033.2
2023-02-08T10:59:24.782Z,1033.2
2023-02-08T11:00:28.132Z,1033.2
2023-02-08T11:01:31.985Z,1033.2
2023-02-08T11:02:35.600Z,1033.3
2023-02-08T11:03:38.338Z,1033.3
2023-02-08T11:04:40.807Z,1033.2
2023-02-08T11:05:44.009Z,1033.2
2023-02-08T11:06:47.483Z,1033.2
2023-02-08T11:07:50.600Z,1033.2
2023-02-08T11:08:53.880Z,1033.2
2023-02-08T11:09:56.975Z,1033.2
2023-02-08T11:11:00.717Z,1033.2
2023-02-08T11:12:04.812Z,1033.1
2023-02-08T11:13:07.684Z,1033.1
2023-02-08T11:14:10.784Z,1033.1
2023-02-08T11:15:13.912Z,1033.2
2023-02-08T11:16:17.036Z,1033
2023-02-08T11:17:21.206Z,1033.2
2023-02-08T11:18:24.700Z,1033.1
2023-02-08T11:19:28.052Z,1033
2023-02-08T11:20:31.500Z,1033.1
2023-02-08T11:21:34.621Z,1033
2023-02-08T11:22:37.772Z,1033.1
2023-02-08T11:23:40.775Z,1033
2023-02-08T11:24:44.053Z,1033
2023-02-08T11:25:47.134Z,1033
2023-02-08T11:26:49.924Z,1032.9
2023-02-08T11:27:53.519Z,1032.9
2023-02-08T11:28:56.458Z,1032.8
2023-02-08T11:29:59.499Z,1032.8
2023-02-08T11:31:02.951Z,1032.8
2023-02-08T11:32:06.474Z,1032.8
2023-02-08T11:33:09.458Z,1032.9
2023-02-08T11:34:13.596Z,1032.8
2023-02-08T11:35:16.693Z,1032.8
2023-02-08T11:36:19.890Z,1032.8
2023-02-08T11:37:22.886Z,1032.8
2023-02-08T11:38:26.052Z,1032.8
2023-02-08T11:39:29.490Z,1032.8
2023-02-08T11:40:33.229Z,1032.8
2023-02-08T11:41:38.215Z,1032.8
2023-02-08T11:42:41.648Z,1032.8
2023-02-08T11:43:45.396Z,1032.9
2023-02-08T11:44:48.560Z,1032.9
2023-02-08T11:45:51.705Z,1032.8
2023-02-08T11:46:55.079Z,1032.8
2023-02-08T11:47:58.152Z,1032.8
2023-02-08T11:49:00.606Z,1032.8
2023-02-08T11:50:04.365Z,1032.7
2023-02-08T11:51:07.067Z,1032.8
2023-02-08T11:52:09.900Z,1032.7
2023-02-08T11:53:13.609Z,1032.7
2023-02-08T11:54:16.871Z,1032.7
2023-02-08T11:55:20.032Z,1032.8
2023-02-08T11:56:22.794Z,1032.7
2023-02-08T11:57:25.744Z,1032.7
2023-02-08T11:58:29.413Z,1032.6
2023-02-08T11:59:33.125Z,1032.7
2023-02-08T12:00:36.814Z,1032.7
2023-02-08T12:01:40.548Z,1032.7
2023-02-08T12:02:43.713Z,1032.6
2023-02-08T12:03:47.740Z,1032.7
2023-02-08T12:04:52.336Z,1032.7
2023-02-08T12:05:56.155Z,1032.6
2023-02-08T12:06:59.537Z,1032.6
2023-02-08T12:08:02.999Z,1032.5
2023-02-08T12:09:06.084Z,1032.6
2023-02-08T12:10:09.533Z,1032.6
2023-02-08T12:11:12.995Z,1032.6
2023-02-08T12:12:16.060Z,1032.5
2023-02-08T12:13:18.808Z,1032.5
2023-02-08T12:14:21.979Z,1032.6
2023-02-08T12:15:25.839Z,1032.5
2023-02-08T12:16:32.916Z,1032.5
2023-02-08T12:17:37.206Z,1032.5
2023-02-08T12:18:40.604Z,1032.5
2023-02-08T12:19:44.573Z,1032.5
2023-02-08T12:20:47.942Z,1032.4
2023-02-08T12:21:51.752Z,1032.4
2023-02-08T12:22:55.572Z,1032.5
2023-02-08T12:23:59.213Z,1032.5
2023-02-08T12:25:02.679Z,1032.5
2023-02-08T12:26:06.053Z,1032.6
2023-02-08T12:27:08.828Z,1032.6
2023-02-08T12:28:11.984Z,1032.5
2023-02-08T12:29:14.941Z,1032.5
2023-02-08T12:30:18.351Z,1032.5
2023-02-08T12:31:22.788Z,1032.4
2023-02-08T12:32:27.394Z,1032.4
2023-02-08T12:33:31.397Z,1032.4
2023-02-08T12:34:33.696Z,1032.4
2023-02-08T12:36:04.879Z,1032.4
2023-02-08T12:37:11.185Z,1032.4
2023-02-08T12:38:14.948Z,1032.4
2023-02-08T12:39:22.840Z,1032.3
2023-02-08T12:40:29.140Z,1032.3
2023-02-08T12:41:33.210Z,1032.3
2023-02-08T12:42:36.346Z,1032.3
2023-02-08T12:43:40.179Z,1032.3
2023-02-08T12:44:43.876Z,1032.3
2023-02-08T12:45:47.711Z,1032.3
2023-02-08T12:46:51.512Z,1032.3
2023-02-08T12:48:05.136Z,1032.3
2023-02-08T12:49:08.260Z,1032.2
2023-02-08T12:50:10.754Z,1032.3
2023-02-08T12:51:14.670Z,1032.2
2023-02-08T12:52:18.535Z,1032.3
2023-02-08T12:53:20.735Z,1032.2
2023-02-08T12:54:24.202Z,1032.2
2023-02-08T12:55:27.195Z,1032.2
2023-02-08T12:56:29.914Z,1032.2
2023-02-08T12:57:33.292Z,1032.2
2023-02-08T12:58:37.069Z,1032.2
2023-02-08T12:59:40.504Z,1032.2
2023-02-08T13:00:44.797Z,1032.1
2023-02-08T13:01:48.827Z,1032.1
2023-02-08T13:02:52.940Z,1032.2
2023-02-08T13:03:57.133Z,1032.1
2023-02-08T13:05:00.526Z,1032.1
2023-02-08T13:06:04.747Z,1032.1
2023-02-08T13:07:09.872Z,1032.1
2023-02-08T13:08:12.747Z,1032.1
2023-02-08T13:09:15.251Z,1032.1
2023-02-08T13:10:17.672Z,1032.1
2023-02-08T13:11:21.364Z,1032.1
2023-02-08T13:12:24.377Z,1032.1
2023-02-08T13:13:27.544Z,1032.1
2023-02-08T13:14:31.248Z,1032.1
2023-02-08T13:15:34.810Z,1032.1
2023-02-08T13:16:37.887Z,1032.1
2023-02-08T13:17:40.699Z,1032